Time;durP1;ratioP1;P1;durP2;ratioP2;P2;SDS_P1;SDS_P2;PMS_P1;PMS_P2;Temp;Humidity;BMP_temperature;BMP_pressure;BME280_temperature;BME280_humidity;BME280_pressure;Samples;Min_cycle;Max_cycle;Signal;HPM_P1;HPM_P2
2021/12/05 00:18:33;;;;;;;0.60;0.60;;;6.70;90.40;;;;;;5070072;28;20463;-84
2021/12/05 00:21:31;;;;;;;3.10;0.90;;;6.80;83.60;;;;;;5060830;28;20506;-84
2021/12/05 00:24:02;;;;;;;1.17;0.83;;;7.00;7.90;;;;;;5062684;28;20468;-84
2021/12/05 00:26:34;;;;;;;7.63;1.07;;;7.10;1.00;;;;;;5070933;28;20446;-85
2021/12/05 00:29:11;;;;;;;1.17;0.70;;;7.30;1.00;;;;;;5052738;28;20489;-86
2021/12/05 00:32:02;;;;;;;1.37;0.70;;;7.30;1.00;;;;;;5076540;28;20468;-87
2021/12/05 00:34:58;;;;;;;1.63;0.80;;;7.30;1.00;;;;;;5065315;28;20492;-86
2021/12/05 00:38:13;;;;;;;0.60;0.60;;;7.10;1.00;;;;;;5075598;28;20493;-85
2021/12/05 00:43:57;;;;;;;1.00;0.70;;;6.90;1.00;;;;;;5061082;28;20455;-84
2021/12/05 00:46:43;;;;;;;0.60;0.60;;;6.70;1.00;;;;;;5064581;28;20829;-84
2021/12/05 00:49:31;;;;;;;1.80;0.63;;;6.50;1.00;;;;;;5055017;28;20477;-85
2021/12/05 00:52:31;;;;;;;0.73;0.60;;;6.70;1.00;;;;;;5060407;28;20464;-85
2021/12/05 00:57:53;;;;;;;0.93;0.60;;;7.00;1.00;;;;;;5062037;28;20912;-86
2021/12/05 01:00:40;;;;;;;1.17;0.53;;;6.90;1.00;;;;;;5071262;28;20485;-87
2021/12/05 01:09:18;;;;;;;2.40;0.80;;;6.90;1.00;;;;;;5049424;28;20881;-86
2021/12/05 01:14:59;;;;;;;3.47;0.77;;;6.60;1.00;;;;;;4988230;28;20484;-86
2021/12/05 01:17:32;;;;;;;1.90;0.97;;;6.50;1.00;;;;;;5054753;28;20808;-84
2021/12/05 01:20:04;;;;;;;1.37;0.60;;;6.30;1.00;;;;;;5071888;28;20911;-87
2021/12/05 01:22:36;;;;;;;0.53;0.53;;;6.40;1.00;;;;;;5053522;28;20467;-88
2021/12/05 01:25:17;;;;;;;0.50;0.50;;;6.40;99.90;;;;;;5064515;28;20470;-85
2021/12/05 01:27:51;;;;;;;2.40;0.60;;;6.30;48.00;;;;;;5061042;28;20467;-86
2021/12/05 01:30:29;;;;;;;1.67;0.57;;;6.50;3.90;;;;;;5066930;28;21048;-86
2021/12/05 01:33:05;;;;;;;0.50;0.50;;;6.70;1.00;;;;;;5069204;28;20542;-85
2021/12/05 01:35:56;;;;;;;0.60;0.60;;;6.70;1.00;;;;;;5067076;28;20478;-87
2021/12/05 01:38:41;;;;;;;2.80;0.90;;;6.90;1.00;;;;;;5081920;28;20524;-86
2021/12/05 01:58:40;;;;;;;1.60;0.70;;;6.50;1.00;;;;;;5079884;28;20454;-83
2021/12/05 02:01:22;;;;;;;0.80;0.80;;;6.80;1.00;;;;;;5062541;28;20979;-84
2021/12/05 02:10:39;;;;;;;0.80;0.80;;;6.60;1.00;;;;;;5053892;28;20475;-84
2021/12/05 02:41:05;;;;;;;0.80;0.73;;;5.90;99.90;;;;;;5069815;28;20554;-82
2021/12/05 02:43:36;;;;;;;1.50;0.63;;;5.70;99.90;;;;;;5073525;28;20468;-82
2021/12/05 02:46:06;;;;;;;2.70;0.63;;;5.80;99.90;;;;;;5062903;28;20446;-84
2021/12/05 02:48:37;;;;;;;3.70;0.67;;;5.80;1.00;;;;;;5055211;28;21005;-84
2021/12/05 02:51:10;;;;;;;0.83;0.60;;;5.80;99.90;;;;;;5078260;28;20563;-84
2021/12/05 02:53:44;;;;;;;1.40;0.60;;;5.90;99.90;;;;;;5080515;28;20594;-83
2021/12/05 02:56:13;;;;;;;2.83;0.80;;;6.00;99.90;;;;;;5061255;28;20484;-83
2021/12/05 02:58:45;;;;;;;2.83;0.80;;;5.80;99.90;;;;;;5061595;28;20216;-82
2021/12/05 03:01:20;;;;;;;0.90;0.70;;;5.90;99.90;;;;;;5063115;28;20457;-83
2021/12/05 03:03:52;;;;;;;0.60;0.60;;;6.00;99.90;;;;;;5060944;28;20502;-84
2021/12/05 03:06:26;;;;;;;1.13;0.60;;;6.10;99.90;;;;;;5061524;28;20462;-83
2021/12/05 03:09:00;;;;;;;2.00;0.80;;;6.00;99.90;;;;;;5066135;28;20445;-83
2021/12/05 03:11:30;;;;;;;2.80;0.73;;;5.90;99.90;;;;;;5056210;28;20929;-83
2021/12/05 03:13:59;;;;;;;1.37;0.87;;;5.70;99.90;;;;;;5059295;28;20456;-85
2021/12/05 03:16:28;;;;;;;0.60;0.60;;;5.80;99.90;;;;;;5072032;28;20551;-83
2021/12/05 03:18:57;;;;;;;0.70;0.70;;;5.80;99.90;;;;;;5053668;28;20451;-83
2021/12/05 03:21:25;;;;;;;0.60;0.53;;;6.20;99.90;;;;;;5050742;28;20442;-84
2021/12/05 03:23:57;;;;;;;0.67;0.67;;;6.10;99.90;;;;;;5066592;28;21346;-83
2021/12/05 03:26:28;;;;;;;1.17;0.60;;;6.00;99.90;;;;;;5061792;28;20469;-83
2021/12/05 03:28:57;;;;;;;0.60;0.60;;;6.30;99.90;;;;;;5064251;28;20481;-84
2021/12/05 03:31:27;;;;;;;0.95;0.70;;;5.90;99.90;;;;;;5063074;28;20993;-83
2021/12/05 03:33:57;;;;;;;0.87;0.67;;;5.70;99.90;;;;;;5057458;28;20204;-83
2021/12/05 03:36:26;;;;;;;0.68;0.68;;;5.80;99.90;;;;;;5069064;28;21020;-85
2021/12/05 03:38:55;;;;;;;1.27;0.60;;;5.90;99.90;;;;;;5053310;28;20215;-85
2021/12/05 03:41:24;;;;;;;1.17;0.80;;;5.90;99.90;;;;;;5065600;28;20459;-85
2021/12/05 03:43:55;;;;;;;5.10;0.87;;;5.90;99.90;;;;;;5078811;28;20482;-84
2021/12/05 03:46:24;;;;;;;2.00;0.83;;;5.90;99.90;;;;;;5071961;28;20449;-84
2021/12/05 03:48:56;;;;;;;1.33;0.70;;;6.00;41.00;;;;;;5057133;28;20825;-84
2021/12/05 03:51:26;;;;;;;0.70;0.70;;;5.80;99.90;;;;;;5061365;28;20459;-84
2021/12/05 03:53:56;;;;;;;4.23;0.97;;;5.70;99.90;;;;;;5047740;28;20955;-85
2021/12/05 03:56:24;;;;;;;1.13;0.70;;;5.80;99.90;;;;;;5057132;28;20896;-84
2021/12/05 03:58:54;;;;;;;0.70;0.60;;;6.10;99.90;;;;;;5061130;28;20945;-83
2021/12/05 04:01:25;;;;;;;1.70;0.60;;;6.00;45.80;;;;;;5066823;28;20457;-84
2021/12/05 04:03:56;;;;;;;0.70;0.70;;;6.20;52.40;;;;;;5065093;28;20541;-84
2021/12/05 04:06:27;;;;;;;1.90;0.70;;;6.10;1.00;;;;;;5067571;28;20499;-84
2021/12/05 04:09:02;;;;;;;0.60;0.60;;;6.20;1.00;;;;;;5063975;28;20479;-85
2021/12/05 04:11:37;;;;;;;0.60;0.60;;;6.10;1.00;;;;;;5057343;28;21118;-85
2021/12/05 04:14:09;;;;;;;0.70;0.70;;;6.10;1.00;;;;;;5060398;28;21272;-85
2021/12/05 04:16:38;;;;;;;0.40;0.40;;;6.00;1.00;;;;;;5075619;28;20477;-86
2021/12/05 04:19:07;;;;;;;3.43;0.60;;;5.80;1.00;;;;;;5068784;28;20493;-85
2021/12/05 04:21:39;;;;;;;1.33;0.60;;;5.70;97.30;;;;;;5079420;28;20974;-85
2021/12/05 04:24:11;;;;;;;1.63;0.70;;;5.80;54.70;;;;;;5066510;28;20459;-84
2021/12/05 04:26:40;;;;;;;1.13;0.63;;;5.80;46.50;;;;;;5058909;28;20528;-85
2021/12/05 04:29:10;;;;;;;0.60;0.53;;;5.70;99.90;;;;;;5076263;28;20481;-85
2021/12/05 04:31:40;;;;;;;0.60;0.60;;;5.80;95.80;;;;;;5074239;28;20450;-85
2021/12/05 04:34:11;;;;;;;1.90;0.60;;;5.80;69.50;;;;;;5057352;28;20299;-83
2021/12/05 04:36:40;;;;;;;0.60;0.60;;;5.60;99.90;;;;;;5066429;28;20895;-84
2021/12/05 04:39:12;;;;;;;1.17;0.60;;;5.70;99.90;;;;;;5084409;28;21108;-85
2021/12/05 04:41:41;;;;;;;1.37;0.60;;;5.60;99.90;;;;;;5065459;28;20974;-83
2021/12/05 04:44:09;;;;;;;0.67;0.67;;;5.80;99.90;;;;;;5075274;28;20461;-86
2021/12/05 04:46:38;;;;;;;3.00;0.80;;;5.60;99.90;;;;;;5068811;28;20461;-85
2021/12/05 04:49:07;;;;;;;2.83;0.73;;;5.50;1.00;;;;;;5064492;28;20478;-85
2021/12/05 04:51:39;;;;;;;1.07;0.70;;;5.90;99.90;;;;;;5083755;28;20442;-86
2021/12/05 04:54:11;;;;;;;3.33;0.70;;;6.10;99.90;;;;;;5070733;28;20468;-85
2021/12/05 04:56:40;;;;;;;6.53;0.93;;;6.30;29.00;;;;;;5072722;28;20872;-84
2021/12/05 04:59:13;;;;;;;0.60;0.60;;;6.50;1.00;;;;;;5065941;28;20474;-86
2021/12/05 05:01:42;;;;;;;6.60;0.67;;;6.90;1.00;;;;;;5064810;28;20842;-85
2021/12/05 05:04:19;;;;;;;0.50;0.50;;;6.70;1.00;;;;;;5055586;28;20455;-85
2021/12/05 05:06:47;;;;;;;0.50;0.50;;;6.80;1.00;;;;;;5066960;28;20446;-85
2021/12/05 05:09:17;;;;;;;1.43;0.80;;;7.10;1.00;;;;;;5060916;28;20488;-85
2021/12/05 05:11:46;;;;;;;1.30;0.70;;;6.90;1.00;;;;;;5058730;28;20530;-86
2021/12/05 05:14:14;;;;;;;2.20;0.70;;;6.90;1.00;;;;;;5057497;28;20447;-87
2021/12/05 05:16:44;;;;;;;0.70;0.70;;;6.90;1.00;;;;;;5062598;28;20570;-84
2021/12/05 05:19:16;;;;;;;1.80;0.70;;;6.90;1.00;;;;;;5060967;28;20553;-84
2021/12/05 05:21:50;;;;;;;0.80;0.60;;;6.80;1.00;;;;;;5057880;28;20465;-86
2021/12/05 05:46:54;;;;;;;0.60;0.60;;;6.00;1.00;;;;;;5047619;28;20784;-86
2021/12/05 05:49:33;;;;;;;0.77;0.70;;;5.80;99.90;;;;;;5070008;28;21190;-86
2021/12/05 05:52:01;;;;;;;2.00;1.00;;;5.40;99.90;;;;;;5082800;28;20454;-84
2021/12/05 05:54:30;;;;;;;1.47;0.70;;;5.40;99.90;;;;;;5052981;28;20460;-83
2021/12/05 05:57:07;;;;;;;1.07;0.67;;;5.10;16.60;;;;;;5074585;28;20470;-83
2021/12/05 05:59:39;;;;;;;3.90;0.65;;;5.10;99.90;;;;;;5063713;28;20921;-85
2021/12/05 06:04:54;;;;;;;0.65;0.60;;;5.30;99.90;;;;;;5059597;28;20794;-84
2021/12/05 06:07:22;;;;;;;2.30;0.60;;;5.50;1.00;;;;;;5068404;28;20184;-85
2021/12/05 06:09:50;;;;;;;1.20;1.03;;;5.20;1.00;;;;;;5073681;28;20517;-84
2021/12/05 06:12:20;;;;;;;1.80;0.83;;;5.50;99.90;;;;;;5069226;28;20455;-83
2021/12/05 06:14:48;;;;;;;2.50;0.60;;;5.60;99.90;;;;;;5061751;28;20865;-84
2021/12/05 06:17:18;;;;;;;0.70;0.70;;;5.20;1.00;;;;;;5059199;28;20507;-85
2021/12/05 06:19:46;;;;;;;0.73;0.60;;;5.10;1.00;;;;;;5069981;28;20232;-86
2021/12/05 06:22:14;;;;;;;2.25;0.60;;;5.30;1.00;;;;;;5069577;28;20207;-84
2021/12/05 06:24:42;;;;;;;0.83;0.50;;;5.80;99.90;;;;;;5064799;28;20208;-84
2021/12/05 06:27:11;;;;;;;2.93;0.67;;;5.20;99.90;;;;;;5062847;28;20473;-84
2021/12/05 06:29:47;;;;;;;0.55;0.55;;;5.30;99.90;;;;;;5058352;28;20482;-85
2021/12/05 06:37:53;;;;;;;1.50;0.60;;;5.00;1.00;;;;;;5068561;28;20225;-84
2021/12/05 06:40:38;;;;;;;6.73;0.70;;;4.80;99.90;;;;;;5065188;28;20231;-84
2021/12/05 06:45:56;;;;;;;1.15;1.10;;;4.90;99.90;;;;;;5070257;28;20468;-84
2021/12/05 06:46:03;;;;;;;0.50;0.50;;;4.70;99.90;;;;;;5065348;28;20725;-83
2021/12/05 06:48:32;;;;;;;0.73;0.73;;;4.80;1.00;;;;;;5062070;28;20634;-83
2021/12/05 06:51:00;;;;;;;0.80;0.80;;;5.00;99.90;;;;;;5063477;28;20266;-83
2021/12/05 06:53:28;;;;;;;0.60;0.60;;;5.10;1.00;;;;;;5076197;28;20480;-86
2021/12/05 06:55:57;;;;;;;1.73;0.70;;;5.10;1.00;;;;;;5077518;28;20201;-84
2021/12/05 06:58:25;;;;;;;2.23;0.50;;;5.30;99.90;;;;;;5062780;28;20477;-84
2021/12/05 07:00:55;;;;;;;1.07;0.70;;;5.50;99.90;;;;;;5062457;28;20504;-86
2021/12/05 07:03:24;;;;;;;2.73;0.67;;;5.60;99.90;;;;;;5054241;28;20654;-85
2021/12/05 07:05:57;;;;;;;0.60;0.60;;;5.60;99.90;;;;;;5065129;28;21153;-84
2021/12/05 07:08:29;;;;;;;0.70;0.70;;;5.70;99.90;;;;;;5054341;28;20460;-85
2021/12/05 07:11:03;;;;;;;0.70;0.60;;;5.70;99.90;;;;;;5075699;28;20219;-85
2021/12/05 07:16:25;;;;;;;0.90;0.68;;;5.70;99.90;;;;;;5068052;28;20200;-81
2021/12/05 07:19:14;;;;;;;1.77;0.65;;;5.50;99.90;;;;;;5056536;28;20200;-81
2021/12/05 07:21:48;;;;;;;0.50;0.50;;;5.60;99.90;;;;;;5070311;28;20961;-82
2021/12/05 07:24:30;;;;;;;0.75;0.63;;;5.90;99.90;;;;;;5069609;28;20456;-82
2021/12/05 07:40:20;;;;;;;0.90;0.65;;;5.60;99.90;;;;;;5062510;28;20656;-81
2021/12/05 07:41:20;;;;;;;0.70;0.70;;;6.00;37.80;;;;;;5054086;28;20536;-81
2021/12/05 07:43:48;;;;;;;2.43;0.60;;;6.00;1.00;;;;;;5058905;28;20807;-80
2021/12/05 07:46:17;;;;;;;1.00;0.63;;;6.10;1.00;;;;;;5066129;28;20459;-78
2021/12/05 07:48:47;;;;;;;0.97;0.50;;;6.10;1.00;;;;;;5084646;28;20953;-80
2021/12/05 07:51:25;;;;;;;1.70;0.60;;;6.20;1.00;;;;;;5066397;28;20490;-84
2021/12/05 07:54:03;;;;;;;0.60;0.60;;;6.20;1.00;;;;;;5067160;28;20533;-83
2021/12/05 07:56:39;;;;;;;1.20;0.70;;;6.00;1.00;;;;;;5059020;28;20966;-81
2021/12/05 07:59:24;;;;;;;1.57;0.80;;;6.20;1.00;;;;;;5055975;28;20471;-80
2021/12/05 08:15:47;;;;;;;2.20;0.97;;;5.30;79.90;;;;;;5055187;28;20458;-84
2021/12/05 08:18:16;;;;;;;1.90;0.70;;;5.20;99.90;;;;;;5081147;28;20466;-81
2021/12/05 08:20:46;;;;;;;1.87;0.80;;;5.30;99.90;;;;;;5072849;28;20469;-84
2021/12/05 08:23:16;;;;;;;1.77;0.80;;;5.50;99.90;;;;;;5061225;28;20902;-80
2021/12/05 08:25:52;;;;;;;1.00;0.67;;;5.50;99.90;;;;;;5068056;28;20447;-80
2021/12/05 08:28:32;;;;;;;1.53;0.70;;;5.90;52.70;;;;;;5070551;28;20463;-80
2021/12/05 08:31:10;;;;;;;0.63;0.63;;;5.60;4.80;;;;;;5062285;28;20477;-80
2021/12/05 08:33:51;;;;;;;2.13;0.90;;;5.60;1.00;;;;;;5069660;28;20464;-84
2021/12/05 08:42:20;;;;;;;5.57;0.73;;;5.10;99.90;;;;;;5067431;28;20457;-81
2021/12/05 09:26:55;;;;;;;1.13;0.77;;;5.90;99.90;;;;;;5059563;28;20465;-80
2021/12/05 10:06:43;;;;;;;0.77;0.67;;;7.30;1.00;;;;;;5059749;28;20484;-82
2021/12/05 10:09:16;;;;;;;0.80;0.60;;;7.10;1.00;;;;;;5055261;28;20506;-81
2021/12/05 10:11:51;;;;;;;1.70;0.80;;;7.00;1.00;;;;;;5052311;28;21007;-84
2021/12/05 10:14:34;;;;;;;2.30;0.67;;;7.40;1.00;;;;;;5054084;28;20457;-81
2021/12/05 10:34:35;;;;;;;1.53;0.40;;;10.30;99.90;;;;;;5062348;28;20985;-82
2021/12/05 10:37:12;;;;;;;0.97;0.57;;;10.00;99.90;;;;;;5054898;28;21213;-81
2021/12/05 10:39:40;;;;;;;1.00;0.60;;;9.80;99.90;;;;;;5058199;28;20618;-86
2021/12/05 10:42:35;;;;;;;1.43;0.70;;;9.80;99.90;;;;;;5061421;28;20901;-82
2021/12/05 10:45:07;;;;;;;0.70;0.60;;;9.50;99.90;;;;;;5052593;28;20482;-83
2021/12/05 10:47:42;;;;;;;0.90;0.60;;;9.00;99.90;;;;;;5063743;28;20463;-82
2021/12/05 10:50:33;;;;;;;0.60;0.50;;;9.00;99.90;;;;;;5064154;28;20488;-84
2021/12/05 10:53:27;;;;;;;0.70;0.70;;;8.80;99.90;;;;;;5067732;28;20472;-85
2021/12/05 10:55:59;;;;;;;0.50;0.50;;;8.70;99.90;;;;;;5064724;28;20956;-83
2021/12/05 10:58:33;;;;;;;1.60;0.60;;;8.40;99.90;;;;;;5062150;28;20484;-83
2021/12/05 11:01:17;;;;;;;1.30;0.67;;;8.30;99.90;;;;;;5058684;28;20854;-84
2021/12/05 11:03:47;;;;;;;0.60;0.60;;;8.10;99.90;;;;;;5054252;28;20526;-82
2021/12/05 11:06:36;;;;;;;0.60;0.50;;;7.80;99.90;;;;;;5056769;28;20481;-81
2021/12/05 11:09:09;;;;;;;0.53;0.50;;;7.50;99.90;;;;;;5054646;28;20584;-84
2021/12/05 11:11:38;;;;;;;2.27;0.53;;;7.40;99.90;;;;;;5061057;28;20463;-85
2021/12/05 11:14:10;;;;;;;0.60;0.40;;;7.60;99.90;;;;;;5063609;28;20463;-81
2021/12/05 11:17:01;;;;;;;0.90;0.70;;;7.60;99.90;;;;;;5061635;28;20465;-83
2021/12/05 11:19:34;;;;;;;0.90;0.60;;;7.40;99.90;;;;;;5059879;28;20491;-83
2021/12/05 11:22:16;;;;;;;0.93;0.90;;;7.40;99.90;;;;;;5072938;28;21317;-81
2021/12/05 11:24:48;;;;;;;0.80;0.60;;;7.30;99.90;;;;;;5062597;28;21000;-84
2021/12/05 11:27:28;;;;;;;0.60;0.60;;;7.40;99.90;;;;;;5058421;28;20458;-82
2021/12/05 11:30:13;;;;;;;0.80;0.50;;;7.30;99.90;;;;;;5050099;28;20479;-82
2021/12/05 11:32:50;;;;;;;0.60;0.60;;;6.90;99.90;;;;;;5063040;28;20533;-82
2021/12/05 11:35:26;;;;;;;0.83;0.60;;;6.90;99.90;;;;;;5052100;28;20469;-83
2021/12/05 11:38:10;;;;;;;1.40;0.90;;;6.50;99.90;;;;;;5062764;28;20456;-82
2021/12/05 11:40:48;;;;;;;1.80;0.50;;;6.50;99.90;;;;;;5060503;28;20478;-84
2021/12/05 11:43:19;;;;;;;1.03;0.60;;;6.50;99.90;;;;;;5065018;28;20440;-82
2021/12/05 11:45:57;;;;;;;0.50;0.50;;;6.60;99.90;;;;;;5062426;28;20574;-82
2021/12/05 11:48:29;;;;;;;1.90;0.70;;;6.70;99.90;;;;;;5057080;28;20543;-83
2021/12/05 11:50:59;;;;;;;1.33;0.70;;;6.40;99.90;;;;;;5055224;28;20851;-80
2021/12/05 11:53:41;;;;;;;1.10;1.00;;;6.60;99.90;;;;;;5056878;28;20457;-85
2021/12/05 11:56:12;;;;;;;0.80;0.80;;;7.00;49.70;;;;;;5052208;28;20944;-81
2021/12/05 11:58:40;;;;;;;0.97;0.83;;;7.20;1.00;;;;;;5057126;28;20503;-83
2021/12/05 12:01:14;;;;;;;1.00;0.90;;;7.40;1.00;;;;;;5052479;28;20695;-79
2021/12/05 12:03:43;;;;;;;2.30;0.60;;;7.80;1.00;;;;;;5058027;28;20910;-83
2021/12/05 12:06:11;;;;;;;0.70;0.70;;;7.80;1.00;;;;;;5067379;28;20452;-83
2021/12/05 12:08:41;;;;;;;0.50;0.50;;;8.00;99.90;;;;;;5064500;28;20466;-82
2021/12/05 12:11:09;;;;;;;0.70;0.50;;;8.20;99.90;;;;;;5060768;28;20476;-83
2021/12/05 12:13:40;;;;;;;0.60;0.60;;;8.40;99.90;;;;;;5056753;28;20461;-84
2021/12/05 12:16:12;;;;;;;0.50;0.50;;;8.70;99.90;;;;;;5051241;28;20972;-81
2021/12/05 12:18:44;;;;;;;0.77;0.50;;;8.80;99.90;;;;;;5052975;28;20520;-83
2021/12/05 12:21:18;;;;;;;0.60;0.60;;;8.70;99.90;;;;;;5057310;28;20463;-82
2021/12/05 12:23:50;;;;;;;0.77;0.70;;;8.40;99.90;;;;;;5049646;28;20493;-83
2021/12/05 12:26:19;;;;;;;0.57;0.57;;;8.60;99.90;;;;;;5052436;28;20462;-83
2021/12/05 12:28:47;;;;;;;2.40;0.50;;;8.80;99.90;;;;;;5054994;28;20496;-79
2021/12/05 12:31:22;;;;;;;3.30;0.70;;;8.70;99.90;;;;;;5050065;28;20950;-81
2021/12/05 12:33:54;;;;;;;1.80;0.50;;;8.90;99.90;;;;;;5061487;28;20458;-81
2021/12/05 12:36:37;;;;;;;0.53;0.53;;;9.10;99.90;;;;;;5061695;28;20481;-82
2021/12/05 12:39:30;;;;;;;0.80;0.60;;;9.20;99.90;;;;;;5000107;28;20491;-80
2021/12/05 12:42:16;;;;;;;0.40;0.40;;;9.10;99.90;;;;;;4997026;28;20476;-81
2021/12/05 12:45:14;;;;;;;0.50;0.50;;;9.00;99.90;;;;;;5002055;28;20859;-80
2021/12/05 12:47:44;;;;;;;0.40;0.40;;;9.10;99.90;;;;;;5005152;28;20459;-80
2021/12/05 12:50:34;;;;;;;1.33;0.50;;;9.20;99.90;;;;;;5009316;28;20481;-82
2021/12/05 12:53:11;;;;;;;0.50;0.50;;;9.30;99.90;;;;;;5003357;28;20454;-79
2021/12/05 12:55:43;;;;;;;0.50;0.50;;;9.30;99.90;;;;;;5003485;28;20462;-82
2021/12/05 12:58:13;;;;;;;0.50;0.50;;;9.10;99.90;;;;;;5001123;28;20464;-79
2021/12/05 13:00:47;;;;;;;0.40;0.40;;;9.10;99.90;;;;;;5004935;28;20480;-80
2021/12/05 13:03:28;;;;;;;0.97;0.80;;;9.10;99.90;;;;;;5001315;28;20523;-80
2021/12/05 13:11:57;;;;;;;0.50;0.50;;;9.20;99.90;;;;;;5002247;28;20469;-81
2021/12/05 13:14:25;;;;;;;0.40;0.40;;;9.20;99.90;;;;;;5005089;28;20446;-82
2021/12/05 13:16:53;;;;;;;0.50;0.47;;;9.10;99.90;;;;;;5007994;28;20543;-80
2021/12/05 13:19:26;;;;;;;0.97;0.40;;;9.10;99.90;;;;;;5007035;28;20494;-81
2021/12/05 13:22:06;;;;;;;0.50;0.50;;;8.90;99.90;;;;;;4999724;28;20466;-81
2021/12/05 13:24:42;;;;;;;1.60;0.60;;;8.20;99.90;;;;;;5002805;28;20474;-80
2021/12/05 13:27:29;;;;;;;0.57;0.57;;;8.20;99.90;;;;;;5002884;28;20468;-81
2021/12/05 13:29:58;;;;;;;0.40;0.40;;;8.30;99.90;;;;;;5001340;28;20471;-81
2021/12/05 13:32:29;;;;;;;0.40;0.40;;;8.30;99.90;;;;;;4996047;28;20460;-83
2021/12/05 13:34:59;;;;;;;0.50;0.50;;;8.30;99.90;;;;;;4992372;28;20453;-82
2021/12/05 13:37:34;;;;;;;0.50;0.50;;;8.50;99.90;;;;;;5002814;28;20449;-82
2021/12/05 13:40:12;;;;;;;0.70;0.50;;;8.50;99.90;;;;;;5002678;28;20472;-83
2021/12/05 13:42:47;;;;;;;0.40;0.40;;;8.50;99.90;;;;;;5003124;28;20479;-80
2021/12/05 13:45:36;;;;;;;0.60;0.60;;;8.70;99.90;;;;;;4996731;28;20983;-81
2021/12/05 13:48:15;;;;;;;0.60;0.60;;;8.80;99.90;;;;;;5030814;28;20939;-82
2021/12/05 13:50:50;;;;;;;2.77;0.50;;;8.50;99.90;;;;;;4998863;28;20479;-81
2021/12/05 13:53:35;;;;;;;0.43;0.43;;;8.50;99.90;;;;;;4995090;28;20483;-82
2021/12/05 13:56:10;;;;;;;0.70;0.70;;;8.40;99.90;;;;;;5003898;28;20458;-81
2021/12/05 13:58:45;;;;;;;0.60;0.57;;;8.40;99.90;;;;;;5008699;28;20461;-82
2021/12/05 14:01:19;;;;;;;0.63;0.50;;;8.40;99.90;;;;;;4995617;28;20640;-82
2021/12/05 14:04:23;;;;;;;0.70;0.70;;;8.40;99.90;;;;;;5003591;28;20454;-81
2021/12/05 14:06:57;;;;;;;0.50;0.50;;;8.40;99.90;;;;;;4985076;28;20984;-81
2021/12/05 14:09:30;;;;;;;1.97;0.70;;;8.60;99.90;;;;;;5003360;28;20488;-82
2021/12/05 14:12:01;;;;;;;2.57;0.67;;;8.90;99.90;;;;;;4999597;28;20887;-82
2021/12/05 14:14:35;;;;;;;0.53;0.50;;;9.00;99.90;;;;;;5001506;28;20977;-82
2021/12/05 14:17:06;;;;;;;1.23;0.60;;;8.90;99.90;;;;;;5001708;28;20460;-80
2021/12/05 14:19:37;;;;;;;0.40;0.40;;;8.80;99.90;;;;;;5000832;28;20480;-81
2021/12/05 14:22:08;;;;;;;0.50;0.50;;;8.50;99.90;;;;;;5009306;28;20456;-83
2021/12/05 14:24:41;;;;;;;0.63;0.63;;;8.20;99.90;;;;;;4996329;28;21350;-83
2021/12/05 14:27:11;;;;;;;0.60;0.57;;;8.20;99.90;;;;;;4996536;28;20453;-80
2021/12/05 14:29:43;;;;;;;1.73;0.60;;;8.10;99.90;;;;;;4994420;28;20502;-80
2021/12/05 14:32:18;;;;;;;0.50;0.50;;;8.00;99.90;;;;;;4999316;28;20491;-81
2021/12/05 14:34:46;;;;;;;0.50;0.50;;;7.80;99.90;;;;;;4997133;28;20463;-82
2021/12/05 14:37:19;;;;;;;0.50;0.50;;;8.00;99.90;;;;;;4995208;28;20447;-81
2021/12/05 14:39:48;;;;;;;3.23;0.50;;;8.00;99.90;;;;;;5002393;28;20502;-80
2021/12/05 14:42:20;;;;;;;0.60;0.60;;;8.10;99.90;;;;;;5000777;28;20466;-82
2021/12/05 14:44:55;;;;;;;0.80;0.80;;;8.00;99.90;;;;;;5001802;28;20458;-80
2021/12/05 14:47:26;;;;;;;1.20;0.60;;;8.00;99.90;;;;;;4990663;28;21031;-81
2021/12/05 14:49:56;;;;;;;1.53;0.70;;;8.10;99.90;;;;;;4999980;28;20996;-81
2021/12/05 14:52:27;;;;;;;1.43;0.60;;;8.00;99.90;;;;;;4997540;28;20567;-80
2021/12/05 14:54:56;;;;;;;0.80;0.70;;;7.80;99.90;;;;;;4998156;28;20468;-80
2021/12/05 14:57:27;;;;;;;2.20;0.50;;;7.60;99.90;;;;;;4997548;28;20891;-83
2021/12/05 15:00:06;;;;;;;0.60;0.60;;;7.50;99.90;;;;;;4998941;28;20476;-83
2021/12/05 15:02:36;;;;;;;7.33;1.63;;;7.40;99.90;;;;;;5004193;28;20484;-84
2021/12/05 15:05:08;;;;;;;1.03;0.90;;;7.50;99.90;;;;;;5008327;28;20460;-81
2021/12/05 15:07:37;;;;;;;0.80;0.80;;;7.70;99.90;;;;;;4992433;28;20461;-80
2021/12/05 15:10:07;;;;;;;1.73;0.70;;;8.00;99.90;;;;;;5002332;28;20501;-80
2021/12/05 15:12:37;;;;;;;0.53;0.53;;;8.10;99.90;;;;;;4995502;28;20464;-81
2021/12/05 15:15:10;;;;;;;1.13;0.80;;;8.00;99.90;;;;;;5002632;28;20443;-78
2021/12/05 15:17:42;;;;;;;1.23;0.60;;;8.00;99.90;;;;;;4997822;28;20467;-79
2021/12/05 15:20:14;;;;;;;2.10;0.70;;;8.00;99.90;;;;;;5002290;28;20487;-81
2021/12/05 15:22:45;;;;;;;0.87;0.70;;;8.10;99.90;;;;;;4999451;28;20483;-83
2021/12/05 15:25:16;;;;;;;0.93;0.70;;;8.60;99.90;;;;;;5000433;28;20452;-81
2021/12/05 15:27:46;;;;;;;1.70;0.70;;;8.40;99.90;;;;;;5000221;28;21017;-81
2021/12/05 15:30:21;;;;;;;2.40;0.70;;;8.40;99.90;;;;;;4995730;28;20480;-79
2021/12/05 15:32:53;;;;;;;0.80;0.70;;;8.50;99.90;;;;;;4994214;28;20459;-81
2021/12/05 15:35:22;;;;;;;2.40;0.70;;;8.40;99.90;;;;;;5000476;28;20467;-81
2021/12/05 15:37:53;;;;;;;0.70;0.70;;;8.20;99.90;;;;;;5000910;28;20566;-80
2021/12/05 15:40:22;;;;;;;1.80;0.70;;;8.10;99.90;;;;;;5001931;28;20576;-81
2021/12/05 15:42:52;;;;;;;2.83;1.00;;;8.10;99.90;;;;;;4996057;28;20457;-82
2021/12/05 15:45:22;;;;;;;2.27;0.77;;;8.20;99.90;;;;;;4996296;28;20459;-81
2021/12/05 15:47:50;;;;;;;0.80;0.80;;;8.30;99.90;;;;;;5000391;28;20908;-81
2021/12/05 15:50:21;;;;;;;2.30;0.63;;;8.30;99.90;;;;;;4994350;28;20483;-83
2021/12/05 15:52:52;;;;;;;0.60;0.60;;;8.30;99.90;;;;;;5001465;28;20561;-79
2021/12/05 15:55:24;;;;;;;0.60;0.60;;;8.10;99.90;;;;;;4996406;28;20446;-81
2021/12/05 15:57:55;;;;;;;2.30;0.80;;;8.20;99.90;;;;;;5001081;28;20468;-81
2021/12/05 16:00:30;;;;;;;1.33;1.13;;;8.10;99.90;;;;;;5003338;28;20534;-80
2021/12/05 16:03:03;;;;;;;2.70;1.93;;;8.20;99.90;;;;;;4991767;28;20605;-81
2021/12/05 16:05:33;;;;;;;2.77;1.77;;;8.30;99.90;;;;;;4988211;28;20460;-81
2021/12/05 16:08:06;;;;;;;1.37;1.13;;;8.20;99.90;;;;;;4998389;28;20565;-82
2021/12/05 16:10:36;;;;;;;5.30;2.83;;;8.20;99.90;;;;;;5008681;28;20540;-81
2021/12/05 16:13:13;;;;;;;6.20;4.10;;;8.20;99.90;;;;;;5000351;28;20685;-80
2021/12/05 16:15:45;;;;;;;4.20;3.60;;;8.40;99.90;;;;;;4997323;28;20460;-80
2021/12/05 16:18:13;;;;;;;3.37;2.07;;;8.30;99.90;;;;;;5002592;28;20533;-82
2021/12/05 16:20:45;;;;;;;4.57;2.67;;;8.20;99.90;;;;;;5002333;28;20485;-80
2021/12/05 16:23:23;;;;;;;3.90;2.10;;;8.20;99.90;;;;;;4994778;28;20470;-82
2021/12/05 16:26:09;;;;;;;6.27;2.50;;;8.20;99.90;;;;;;5003316;28;20542;-81
2021/12/05 16:28:40;;;;;;;4.60;3.77;;;8.20;99.90;;;;;;4996400;28;20478;-81
2021/12/05 16:31:14;;;;;;;4.00;2.70;;;8.20;99.90;;;;;;4999299;28;20473;-81
2021/12/05 16:33:45;;;;;;;5.30;3.03;;;8.20;99.90;;;;;;4994168;28;20463;-82
2021/12/05 16:36:14;;;;;;;6.73;2.23;;;8.20;99.90;;;;;;5006718;28;20470;-82
2021/12/05 16:38:44;;;;;;;3.70;2.30;;;8.20;99.90;;;;;;5001253;28;20455;-83
2021/12/05 16:41:18;;;;;;;1.77;1.10;;;8.20;99.90;;;;;;5000779;28;20483;-83
2021/12/05 16:43:59;;;;;;;1.97;1.67;;;8.20;99.90;;;;;;5008113;28;20516;-82
2021/12/05 16:46:33;;;;;;;1.83;1.53;;;8.20;99.90;;;;;;5015276;28;20463;-82
2021/12/05 16:49:05;;;;;;;2.60;2.03;;;8.10;99.90;;;;;;5006358;28;20483;-82
2021/12/05 16:51:36;;;;;;;2.40;1.00;;;8.00;99.90;;;;;;5007349;28;20456;-80
2021/12/05 16:54:16;;;;;;;2.93;1.33;;;8.00;99.90;;;;;;4995184;28;20480;-81
2021/12/05 16:56:51;;;;;;;3.73;1.73;;;8.00;99.90;;;;;;4993961;28;20456;-81
2021/12/05 16:59:27;;;;;;;1.70;1.60;;;8.00;99.90;;;;;;5005522;28;20474;-83
2021/12/05 17:02:13;;;;;;;1.93;1.37;;;7.90;99.90;;;;;;5002399;28;20486;-82
2021/12/05 17:04:57;;;;;;;1.93;1.67;;;7.90;99.90;;;;;;5002258;28;20465;-81
2021/12/05 17:07:42;;;;;;;1.90;1.63;;;7.90;99.90;;;;;;5003092;28;20973;-84
2021/12/05 17:10:27;;;;;;;2.63;1.10;;;7.80;99.90;;;;;;5014708;28;20585;-83
2021/12/05 17:12:58;;;;;;;1.77;1.13;;;7.80;99.90;;;;;;4999211;28;20504;-81
2021/12/05 17:15:30;;;;;;;1.50;1.40;;;7.80;99.90;;;;;;5005085;28;20470;-82
2021/12/05 17:18:03;;;;;;;3.30;2.20;;;7.70;99.90;;;;;;5003257;28;20460;-82
2021/12/05 17:20:35;;;;;;;18.80;9.83;;;7.70;99.90;;;;;;5000676;28;20484;-82
2021/12/05 17:23:07;;;;;;;10.03;5.60;;;7.70;99.90;;;;;;4994644;28;20482;-84
2021/12/05 17:25:38;;;;;;;3.70;1.90;;;7.80;99.90;;;;;;5000951;28;20475;-83
2021/12/05 17:28:09;;;;;;;2.77;1.93;;;7.80;99.90;;;;;;5012729;28;20567;-81
2021/12/05 17:30:50;;;;;;;5.13;3.03;;;7.90;99.90;;;;;;4996320;28;20673;-82
2021/12/05 17:33:28;;;;;;;1.47;1.30;;;7.60;99.90;;;;;;4999244;28;20455;-82
2021/12/05 17:36:02;;;;;;;5.93;2.43;;;7.60;99.90;;;;;;4997135;28;20652;-82
2021/12/05 17:38:32;;;;;;;3.37;3.03;;;7.60;99.90;;;;;;5001162;28;20446;-82
2021/12/05 17:41:00;;;;;;;5.53;4.03;;;7.70;99.90;;;;;;5013638;28;20473;-82
2021/12/05 17:43:29;;;;;;;11.30;6.30;;;7.50;99.90;;;;;;5005512;28;20459;-80
2021/12/05 17:45:58;;;;;;;6.90;4.10;;;7.50;99.90;;;;;;5001356;28;20300;-81
2021/12/05 17:48:28;;;;;;;4.90;3.03;;;7.60;99.90;;;;;;5001719;28;20459;-81